sensor_id;sensor_type;location;lat;lon;timestamp;temperature;humidity
1626;DHT22;806;48.770;9.156;2022-09-09T00:01:22;16.90;1.00
1626;DHT22;806;48.770;9.156;2022-09-09T00:03:53;17.00;99.90
1626;DHT22;806;48.770;9.156;2022-09-09T00:06:26;16.90;99.90
1626;DHT22;806;48.770;9.156;2022-09-09T00:09:02;16.90;99.90
1626;DHT22;806;48.770;9.156;2022-09-09T00:11:39;16.90;99.90
1626;DHT22;806;48.770;9.156;2022-09-09T00:14:13;16.80;99.90
1626;DHT22;806;48.770;9.156;2022-09-09T00:16:46;16.80;1.00
1626;DHT22;806;48.770;9.156;2022-09-09T00:19:20;16.80;99.90
1626;DHT22;806;48.770;9.156;2022-09-09T00:21:55;16.70;1.00
1626;DHT22;806;48.770;9.156;2022-09-09T00:24:29;16.60;1.00
1626;DHT22;806;48.770;9.156;2022-09-09T00:27:04;16.70;99.90
1626;DHT22;806;48.770;9.156;2022-09-09T00:29:36;16.80;1.00
1626;DHT22;806;48.770;9.156;2022-09-09T00:32:12;16.80;1.00
1626;DHT22;806;48.770;9.156;2022-09-09T00:34:43;16.80;1.00
1626;DHT22;806;48.770;9.156;2022-09-09T00:37:11;16.90;1.00
1626;DHT22;806;48.770;9.156;2022-09-09T00:39:40;16.90;99.90
1626;DHT22;806;48.770;9.156;2022-09-09T00:42:14;16.90;1.00
1626;DHT22;806;48.770;9.156;2022-09-09T00:44:51;17.00;99.90
1626;DHT22;806;48.770;9.156;2022-09-09T00:50:17;17.10;1.00
1626;DHT22;806;48.770;9.156;2022-09-09T00:52:54;17.10;1.00
1626;DHT22;806;48.770;9.156;2022-09-09T00:55:32;17.10;1.00
1626;DHT22;806;48.770;9.156;2022-09-09T00:58:02;17.10;1.00
1626;DHT22;806;48.770;9.156;2022-09-09T01:00:31;17.00;1.00
1626;DHT22;806;48.770;9.156;2022-09-09T01:03:10;17.00;1.00
1626;DHT22;806;48.770;9.156;2022-09-09T01:05:46;17.00;1.00
1626;DHT22;806;48.770;9.156;2022-09-09T01:08:33;17.10;1.00
1626;DHT22;806;48.770;9.156;2022-09-09T01:11:02;17.10;1.00
1626;DHT22;806;48.770;9.156;2022-09-09T01:13:31;17.10;1.00
1626;DHT22;806;48.770;9.156;2022-09-09T01:16:01;17.10;1.00
1626;DHT22;806;48.770;9.156;2022-09-09T01:18:32;17.10;1.00
1626;DHT22;806;48.770;9.156;2022-09-09T01:21:07;17.10;1.00
1626;DHT22;806;48.770;9.156;2022-09-09T01:23:45;17.10;99.90
1626;DHT22;806;48.770;9.156;2022-09-09T01:26:25;17.10;99.90
1626;DHT22;806;48.770;9.156;2022-09-09T01:28:53;17.10;99.90
1626;DHT22;806;48.770;9.156;2022-09-09T01:31:23;17.20;1.00
1626;DHT22;806;48.770;9.156;2022-09-09T01:33:53;17.10;99.90
1626;DHT22;806;48.770;9.156;2022-09-09T01:36:28;17.10;99.90
1626;DHT22;806;48.770;9.156;2022-09-09T01:38:56;17.20;99.90
1626;DHT22;806;48.770;9.156;2022-09-09T01:41:25;17.20;99.90
1626;DHT22;806;48.770;9.156;2022-09-09T01:43:53;17.20;99.90
1626;DHT22;806;48.770;9.156;2022-09-09T01:46:22;17.20;99.90
1626;DHT22;806;48.770;9.156;2022-09-09T01:48:50;17.10;99.90
1626;DHT22;806;48.770;9.156;2022-09-09T01:51:17;17.10;99.90
1626;DHT22;806;48.770;9.156;2022-09-09T01:53:45;17.10;99.90
1626;DHT22;806;48.770;9.156;2022-09-09T01:56:21;17.10;99.90
1626;DHT22;806;48.770;9.156;2022-09-09T01:59:04;17.10;99.90
1626;DHT22;806;48.770;9.156;2022-09-09T02:01:42;17.10;99.90
1626;DHT22;806;48.770;9.156;2022-09-09T02:04:21;17.10;99.90
1626;DHT22;806;48.770;9.156;2022-09-09T02:06:50;17.20;99.90
1626;DHT22;806;48.770;9.156;2022-09-09T02:09:23;17.20;1.00
1626;DHT22;806;48.770;9.156;2022-09-09T02:11:57;17.20;99.90
1626;DHT22;806;48.770;9.156;2022-09-09T02:14:31;17.20;99.90
1626;DHT22;806;48.770;9.156;2022-09-09T02:17:05;17.30;99.90
1626;DHT22;806;48.770;9.156;2022-09-09T02:19:36;17.40;99.90
1626;DHT22;806;48.770;9.156;2022-09-09T02:22:05;17.40;39.60
1626;DHT22;806;48.770;9.156;2022-09-09T02:24:36;17.50;57.40
1626;DHT22;806;48.770;9.156;2022-09-09T02:27:06;17.50;99.90
1626;DHT22;806;48.770;9.156;2022-09-09T02:29:39;17.30;99.90
1626;DHT22;806;48.770;9.156;2022-09-09T02:32:11;17.20;99.90
1626;DHT22;806;48.770;9.156;2022-09-09T02:34:44;17.10;99.90
1626;DHT22;806;48.770;9.156;2022-09-09T02:37:13;17.00;1.00
1626;DHT22;806;48.770;9.156;2022-09-09T02:39:41;17.00;1.00
1626;DHT22;806;48.770;9.156;2022-09-09T02:42:08;17.00;1.00
1626;DHT22;806;48.770;9.156;2022-09-09T02:44:36;17.00;99.90
1626;DHT22;806;48.770;9.156;2022-09-09T02:47:29;17.10;1.00
1626;DHT22;806;48.770;9.156;2022-09-09T02:50:05;17.10;1.00
1626;DHT22;806;48.770;9.156;2022-09-09T02:52:42;17.00;1.00
1626;DHT22;806;48.770;9.156;2022-09-09T02:55:18;17.00;1.00
1626;DHT22;806;48.770;9.156;2022-09-09T02:57:48;17.10;99.90
1626;DHT22;806;48.770;9.156;2022-09-09T03:00:22;17.20;1.00
1626;DHT22;806;48.770;9.156;2022-09-09T03:02:50;17.20;1.00
1626;DHT22;806;48.770;9.156;2022-09-09T03:05:17;17.20;1.00
1626;DHT22;806;48.770;9.156;2022-09-09T03:07:44;17.10;1.00
1626;DHT22;806;48.770;9.156;2022-09-09T03:10:10;17.00;1.00
1626;DHT22;806;48.770;9.156;2022-09-09T03:12:37;17.00;99.90
1626;DHT22;806;48.770;9.156;2022-09-09T03:15:06;16.90;99.90
1626;DHT22;806;48.770;9.156;2022-09-09T03:17:34;16.60;1.00
1626;DHT22;806;48.770;9.156;2022-09-09T03:20:02;16.50;1.00
1626;DHT22;806;48.770;9.156;2022-09-09T03:22:29;16.40;99.90
1626;DHT22;806;48.770;9.156;2022-09-09T03:24:56;16.40;1.00
1626;DHT22;806;48.770;9.156;2022-09-09T03:27:23;16.40;99.90
1626;DHT22;806;48.770;9.156;2022-09-09T03:29:50;16.30;1.00
1626;DHT22;806;48.770;9.156;2022-09-09T03:32:17;16.30;99.90
1626;DHT22;806;48.770;9.156;2022-09-09T03:34:46;16.20;99.90
1626;DHT22;806;48.770;9.156;2022-09-09T03:37:15;16.30;99.90
1626;DHT22;806;48.770;9.156;2022-09-09T03:39:43;16.30;99.90
1626;DHT22;806;48.770;9.156;2022-09-09T03:42:12;16.30;59.50
1626;DHT22;806;48.770;9.156;2022-09-09T03:44:39;16.30;1.00
1626;DHT22;806;48.770;9.156;2022-09-09T03:47:07;16.40;1.00
1626;DHT22;806;48.770;9.156;2022-09-09T03:49:34;16.40;1.00
1626;DHT22;806;48.770;9.156;2022-09-09T03:52:02;16.40;1.00
1626;DHT22;806;48.770;9.156;2022-09-09T03:54:29;16.40;99.90
1626;DHT22;806;48.770;9.156;2022-09-09T03:56:56;16.40;1.00
1626;DHT22;806;48.770;9.156;2022-09-09T03:59:23;16.40;1.00
1626;DHT22;806;48.770;9.156;2022-09-09T04:01:50;16.40;26.90
1626;DHT22;806;48.770;9.156;2022-09-09T04:04:17;16.30;89.50
1626;DHT22;806;48.770;9.156;2022-09-09T04:06:45;16.30;1.00
1626;DHT22;806;48.770;9.156;2022-09-09T04:09:15;16.30;99.90
1626;DHT22;806;48.770;9.156;2022-09-09T04:11:41;16.30;99.90
1626;DHT22;806;48.770;9.156;2022-09-09T04:14:08;16.30;99.90
1626;DHT22;806;48.770;9.156;2022-09-09T04:16:35;16.40;99.90
1626;DHT22;806;48.770;9.156;2022-09-09T04:19:03;16.40;1.00
1626;DHT22;806;48.770;9.156;2022-09-09T04:21:32;16.40;12.80
1626;DHT22;806;48.770;9.156;2022-09-09T04:23:59;16.40;99.90
1626;DHT22;806;48.770;9.156;2022-09-09T04:26:27;16.40;99.90
1626;DHT22;806;48.770;9.156;2022-09-09T04:28:54;16.40;99.90
1626;DHT22;806;48.770;9.156;2022-09-09T04:31:22;16.50;1.00
1626;DHT22;806;48.770;9.156;2022-09-09T04:33:49;16.50;1.00
1626;DHT22;806;48.770;9.156;2022-09-09T04:36:17;16.70;1.00
1626;DHT22;806;48.770;9.156;2022-09-09T04:38:44;16.60;1.00
1626;DHT22;806;48.770;9.156;2022-09-09T04:41:12;16.70;1.00
1626;DHT22;806;48.770;9.156;2022-09-09T04:43:40;16.50;99.90
1626;DHT22;806;48.770;9.156;2022-09-09T04:46:08;16.40;1.00
1626;DHT22;806;48.770;9.156;2022-09-09T04:48:35;16.40;1.00
1626;DHT22;806;48.770;9.156;2022-09-09T04:51:04;16.30;22.90
1626;DHT22;806;48.770;9.156;2022-09-09T04:53:32;16.20;1.00
1626;DHT22;806;48.770;9.156;2022-09-09T04:56:03;16.20;1.00
1626;DHT22;806;48.770;9.156;2022-09-09T04:58:31;16.10;5.10
1626;DHT22;806;48.770;9.156;2022-09-09T05:01:07;16.10;99.90
1626;DHT22;806;48.770;9.156;2022-09-09T05:03:35;16.20;1.00
1626;DHT22;806;48.770;9.156;2022-09-09T05:06:03;16.10;72.90
1626;DHT22;806;48.770;9.156;2022-09-09T05:08:31;16.00;99.90
1626;DHT22;806;48.770;9.156;2022-09-09T05:10:58;16.00;99.90
1626;DHT22;806;48.770;9.156;2022-09-09T05:13:25;16.00;99.90
1626;DHT22;806;48.770;9.156;2022-09-09T05:15:53;16.10;99.90
1626;DHT22;806;48.770;9.156;2022-09-09T05:18:21;16.10;99.90
1626;DHT22;806;48.770;9.156;2022-09-09T05:20:48;16.10;99.90
1626;DHT22;806;48.770;9.156;2022-09-09T05:23:16;16.20;99.90
1626;DHT22;806;48.770;9.156;2022-09-09T05:25:43;16.30;99.90
1626;DHT22;806;48.770;9.156;2022-09-09T05:28:12;16.20;99.90
1626;DHT22;806;48.770;9.156;2022-09-09T05:30:39;16.30;99.90
1626;DHT22;806;48.770;9.156;2022-09-09T05:33:06;16.30;99.90
1626;DHT22;806;48.770;9.156;2022-09-09T05:35:36;16.30;99.90
1626;DHT22;806;48.770;9.156;2022-09-09T05:38:03;16.40;99.90
1626;DHT22;806;48.770;9.156;2022-09-09T05:40:30;16.40;1.00
1626;DHT22;806;48.770;9.156;2022-09-09T05:43:01;16.50;1.00
1626;DHT22;806;48.770;9.156;2022-09-09T05:45:28;16.60;1.00
1626;DHT22;806;48.770;9.156;2022-09-09T05:47:55;16.60;1.00
1626;DHT22;806;48.770;9.156;2022-09-09T05:50:22;16.70;1.00
1626;DHT22;806;48.770;9.156;2022-09-09T05:52:56;16.60;1.00
1626;DHT22;806;48.770;9.156;2022-09-09T05:55:23;16.50;1.00
1626;DHT22;806;48.770;9.156;2022-09-09T05:57:51;16.50;1.00
1626;DHT22;806;48.770;9.156;2022-09-09T06:00:18;16.60;1.00
1626;DHT22;806;48.770;9.156;2022-09-09T06:02:50;16.60;1.00
1626;DHT22;806;48.770;9.156;2022-09-09T06:05:18;16.60;14.20
1626;DHT22;806;48.770;9.156;2022-09-09T06:07:45;16.70;1.00
1626;DHT22;806;48.770;9.156;2022-09-09T06:10:13;16.80;1.00
1626;DHT22;806;48.770;9.156;2022-09-09T06:12:40;16.80;1.00
1626;DHT22;806;48.770;9.156;2022-09-09T06:15:08;16.90;1.00
1626;DHT22;806;48.770;9.156;2022-09-09T06:17:35;16.90;99.90
1626;DHT22;806;48.770;9.156;2022-09-09T06:20:02;17.00;95.50
1626;DHT22;806;48.770;9.156;2022-09-09T06:22:30;17.00;99.90
1626;DHT22;806;48.770;9.156;2022-09-09T06:24:57;17.10;35.70
1626;DHT22;806;48.770;9.156;2022-09-09T06:27:27;17.10;1.00
1626;DHT22;806;48.770;9.156;2022-09-09T06:29:54;17.20;1.00
1626;DHT22;806;48.770;9.156;2022-09-09T06:32:21;17.20;99.90
1626;DHT22;806;48.770;9.156;2022-09-09T06:34:48;17.30;99.90
1626;DHT22;806;48.770;9.156;2022-09-09T06:37:15;17.30;1.00
1626;DHT22;806;48.770;9.156;2022-09-09T06:39:42;17.30;19.70
1626;DHT22;806;48.770;9.156;2022-09-09T06:42:09;17.40;99.90
1626;DHT22;806;48.770;9.156;2022-09-09T06:44:38;17.50;42.80
1626;DHT22;806;48.770;9.156;2022-09-09T06:47:05;17.60;1.00
1626;DHT22;806;48.770;9.156;2022-09-09T06:49:32;17.70;1.00
1626;DHT22;806;48.770;9.156;2022-09-09T06:51:58;17.60;99.90
1626;DHT22;806;48.770;9.156;2022-09-09T06:54:25;17.70;1.00
1626;DHT22;806;48.770;9.156;2022-09-09T06:56:52;17.80;99.90
1626;DHT22;806;48.770;9.156;2022-09-09T06:59:19;17.80;25.90
1626;DHT22;806;48.770;9.156;2022-09-09T07:01:47;17.90;99.90
1626;DHT22;806;48.770;9.156;2022-09-09T07:04:14;17.90;99.90
1626;DHT22;806;48.770;9.156;2022-09-09T07:06:43;17.90;1.00
1626;DHT22;806;48.770;9.156;2022-09-09T07:09:13;17.90;99.90
1626;DHT22;806;48.770;9.156;2022-09-09T07:11:42;18.00;99.90
1626;DHT22;806;48.770;9.156;2022-09-09T07:14:10;18.00;99.90
1626;DHT22;806;48.770;9.156;2022-09-09T07:16:38;18.10;99.90
1626;DHT22;806;48.770;9.156;2022-09-09T07:19:06;18.10;1.00
1626;DHT22;806;48.770;9.156;2022-09-09T07:21:34;18.20;1.00
1626;DHT22;806;48.770;9.156;2022-09-09T07:24:03;18.30;99.90
1626;DHT22;806;48.770;9.156;2022-09-09T07:26:33;18.50;99.90
1626;DHT22;806;48.770;9.156;2022-09-09T07:29:00;18.60;1.00
1626;DHT22;806;48.770;9.156;2022-09-09T07:31:29;18.60;1.00
1626;DHT22;806;48.770;9.156;2022-09-09T07:33:57;18.80;1.00
1626;DHT22;806;48.770;9.156;2022-09-09T07:36:28;18.90;1.00
1626;DHT22;806;48.770;9.156;2022-09-09T07:38:56;19.00;99.90
1626;DHT22;806;48.770;9.156;2022-09-09T07:41:25;19.30;99.90
1626;DHT22;806;48.770;9.156;2022-09-09T07:43:53;19.40;1.00
1626;DHT22;806;48.770;9.156;2022-09-09T07:46:23;19.50;1.00
1626;DHT22;806;48.770;9.156;2022-09-09T07:48:51;19.60;1.00
1626;DHT22;806;48.770;9.156;2022-09-09T07:51:20;19.50;1.00
1626;DHT22;806;48.770;9.156;2022-09-09T07:53:52;19.50;1.00
1626;DHT22;806;48.770;9.156;2022-09-09T07:56:19;19.30;1.00
1626;DHT22;806;48.770;9.156;2022-09-09T07:58:50;19.20;1.00
1626;DHT22;806;48.770;9.156;2022-09-09T08:01:19;19.20;1.00
1626;DHT22;806;48.770;9.156;2022-09-09T08:03:52;19.30;1.00
1626;DHT22;806;48.770;9.156;2022-09-09T08:06:20;19.40;1.00
1626;DHT22;806;48.770;9.156;2022-09-09T08:08:52;19.50;1.00
1626;DHT22;806;48.770;9.156;2022-09-09T08:11:21;19.60;1.00
1626;DHT22;806;48.770;9.156;2022-09-09T08:13:49;19.70;1.00
1626;DHT22;806;48.770;9.156;2022-09-09T08:16:19;19.70;1.00
1626;DHT22;806;48.770;9.156;2022-09-09T08:18:48;19.70;1.00
1626;DHT22;806;48.770;9.156;2022-09-09T08:21:18;19.80;1.00
1626;DHT22;806;48.770;9.156;2022-09-09T08:23:46;19.90;1.00
1626;DHT22;806;48.770;9.156;2022-09-09T08:26:16;20.00;99.90
1626;DHT22;806;48.770;9.156;2022-09-09T08:28:49;20.10;99.90
1626;DHT22;806;48.770;9.156;2022-09-09T08:31:19;20.10;99.90
1626;DHT22;806;48.770;9.156;2022-09-09T08:33:46;20.30;99.90
1626;DHT22;806;48.770;9.156;2022-09-09T08:36:17;20.40;99.90
1626;DHT22;806;48.770;9.156;2022-09-09T08:38:51;20.50;99.90
1626;DHT22;806;48.770;9.156;2022-09-09T08:41:38;20.40;99.90
1626;DHT22;806;48.770;9.156;2022-09-09T08:44:09;20.40;99.90
1626;DHT22;806;48.770;9.156;2022-09-09T08:46:44;20.40;99.90
1626;DHT22;806;48.770;9.156;2022-09-09T08:52:08;20.50;99.90
1626;DHT22;806;48.770;9.156;2022-09-09T08:54:41;20.50;99.90
1626;DHT22;806;48.770;9.156;2022-09-09T08:57:13;20.60;99.90
1626;DHT22;806;48.770;9.156;2022-09-09T08:59:41;20.70;99.90
1626;DHT22;806;48.770;9.156;2022-09-09T09:02:15;20.70;36.50
1626;DHT22;806;48.770;9.156;2022-09-09T09:04:58;20.80;12.40
1626;DHT22;806;48.770;9.156;2022-09-09T09:07:37;21.10;13.40
1626;DHT22;806;48.770;9.156;2022-09-09T09:10:18;21.30;1.00
1626;DHT22;806;48.770;9.156;2022-09-09T09:12:51;21.30;1.00
1626;DHT22;806;48.770;9.156;2022-09-09T09:15:21;21.20;1.00
1626;DHT22;806;48.770;9.156;2022-09-09T09:17:49;21.10;1.00
1626;DHT22;806;48.770;9.156;2022-09-09T09:20:26;20.90;1.00
1626;DHT22;806;48.770;9.156;2022-09-09T09:22:59;20.90;1.00
1626;DHT22;806;48.770;9.156;2022-09-09T09:25:33;21.00;1.00
1626;DHT22;806;48.770;9.156;2022-09-09T09:28:10;21.10;1.00
1626;DHT22;806;48.770;9.156;2022-09-09T09:30:40;20.80;17.80
1626;DHT22;806;48.770;9.156;2022-09-09T09:33:14;20.50;99.90
1626;DHT22;806;48.770;9.156;2022-09-09T09:35:42;20.10;99.90
1626;DHT22;806;48.770;9.156;2022-09-09T09:38:16;19.90;99.90
1626;DHT22;806;48.770;9.156;2022-09-09T09:40:49;19.60;99.90
1626;DHT22;806;48.770;9.156;2022-09-09T09:43:24;19.50;99.90
1626;DHT22;806;48.770;9.156;2022-09-09T09:45:51;19.50;99.90
1626;DHT22;806;48.770;9.156;2022-09-09T09:48:18;19.70;99.90
1626;DHT22;806;48.770;9.156;2022-09-09T09:50:50;19.90;99.90
1626;DHT22;806;48.770;9.156;2022-09-09T09:53:21;20.30;96.80
1626;DHT22;806;48.770;9.156;2022-09-09T09:55:57;20.60;1.00
1626;DHT22;806;48.770;9.156;2022-09-09T09:58:29;20.70;1.00
1626;DHT22;806;48.770;9.156;2022-09-09T10:00:57;20.80;1.00
1626;DHT22;806;48.770;9.156;2022-09-09T10:03:27;21.20;1.00
1626;DHT22;806;48.770;9.156;2022-09-09T10:05:55;21.30;1.00
1626;DHT22;806;48.770;9.156;2022-09-09T10:08:24;21.60;1.00
1626;DHT22;806;48.770;9.156;2022-09-09T10:11:05;21.70;1.00
1626;DHT22;806;48.770;9.156;2022-09-09T10:13:46;21.90;1.00
1626;DHT22;806;48.770;9.156;2022-09-09T10:16:27;21.90;1.00
1626;DHT22;806;48.770;9.156;2022-09-09T10:18:59;22.00;1.00
1626;DHT22;806;48.770;9.156;2022-09-09T10:24:59;22.50;1.00
1626;DHT22;806;48.770;9.156;2022-09-09T10:27:36;22.60;1.00
1626;DHT22;806;48.770;9.156;2022-09-09T10:30:12;22.60;1.00
1626;DHT22;806;48.770;9.156;2022-09-09T10:32:45;22.80;1.00
1626;DHT22;806;48.770;9.156;2022-09-09T10:35:27;22.90;1.00
1626;DHT22;806;48.770;9.156;2022-09-09T10:38:17;22.80;1.00
1626;DHT22;806;48.770;9.156;2022-09-09T10:41:06;23.30;1.00
1626;DHT22;806;48.770;9.156;2022-09-09T10:44:05;23.50;1.00
1626;DHT22;806;48.770;9.156;2022-09-09T10:46:45;23.40;1.00
1626;DHT22;806;48.770;9.156;2022-09-09T10:49:21;23.90;1.00
1626;DHT22;806;48.770;9.156;2022-09-09T10:51:56;24.00;1.00
1626;DHT22;806;48.770;9.156;2022-09-09T10:54:37;23.50;1.00
1626;DHT22;806;48.770;9.156;2022-09-09T10:57:11;23.40;1.00
1626;DHT22;806;48.770;9.156;2022-09-09T10:59:43;23.20;1.00
1626;DHT22;806;48.770;9.156;2022-09-09T11:02:17;23.50;1.00
1626;DHT22;806;48.770;9.156;2022-09-09T11:04:50;24.00;1.00
1626;DHT22;806;48.770;9.156;2022-09-09T11:07:26;24.90;1.00
1626;DHT22;806;48.770;9.156;2022-09-09T11:09:59;25.10;1.00
1626;DHT22;806;48.770;9.156;2022-09-09T11:12:34;25.10;1.00
1626;DHT22;806;48.770;9.156;2022-09-09T11:15:06;24.40;1.00
1626;DHT22;806;48.770;9.156;2022-09-09T11:17:42;24.00;1.00
1626;DHT22;806;48.770;9.156;2022-09-09T11:20:13;23.90;1.00
1626;DHT22;806;48.770;9.156;2022-09-09T11:22:46;23.80;1.00
1626;DHT22;806;48.770;9.156;2022-09-09T11:25:17;23.10;1.00
1626;DHT22;806;48.770;9.156;2022-09-09T11:27:58;22.80;1.00
1626;DHT22;806;48.770;9.156;2022-09-09T11:30:48;22.60;1.00
1626;DHT22;806;48.770;9.156;2022-09-09T11:33:58;22.50;1.00
1626;DHT22;806;48.770;9.156;2022-09-09T11:39:49;22.30;1.00
1626;DHT22;806;48.770;9.156;2022-09-09T11:42:20;22.20;1.00
1626;DHT22;806;48.770;9.156;2022-09-09T11:44:47;22.40;1.00
1626;DHT22;806;48.770;9.156;2022-09-09T11:47:24;22.20;1.00
1626;DHT22;806;48.770;9.156;2022-09-09T11:50:08;22.10;1.00
1626;DHT22;806;48.770;9.156;2022-09-09T11:52:39;21.90;1.00
1626;DHT22;806;48.770;9.156;2022-09-09T11:55:20;21.80;1.00
1626;DHT22;806;48.770;9.156;2022-09-09T11:57:57;21.50;1.00
1626;DHT22;806;48.770;9.156;2022-09-09T12:00:33;21.40;1.00
1626;DHT22;806;48.770;9.156;2022-09-09T12:03:00;21.20;1.00
1626;DHT22;806;48.770;9.156;2022-09-09T12:05:39;21.60;1.00
1626;DHT22;806;48.770;9.156;2022-09-09T12:08:09;22.30;1.00
1626;DHT22;806;48.770;9.156;2022-09-09T12:10:39;22.80;1.00
1626;DHT22;806;48.770;9.156;2022-09-09T12:13:16;23.00;1.00
1626;DHT22;806;48.770;9.156;2022-09-09T12:15:48;23.00;1.00
1626;DHT22;806;48.770;9.156;2022-09-09T12:18:22;23.20;1.00
1626;DHT22;806;48.770;9.156;2022-09-09T12:21:00;23.20;1.00
1626;DHT22;806;48.770;9.156;2022-09-09T12:23:38;23.10;1.00
1626;DHT22;806;48.770;9.156;2022-09-09T12:26:20;23.00;1.00
1626;DHT22;806;48.770;9.156;2022-09-09T12:29:02;23.20;1.00
1626;DHT22;806;48.770;9.156;2022-09-09T12:31:35;22.80;1.00
1626;DHT22;806;48.770;9.156;2022-09-09T12:34:11;22.80;1.00
1626;DHT22;806;48.770;9.156;2022-09-09T12:36:42;23.00;1.00
1626;DHT22;806;48.770;9.156;2022-09-09T12:39:18;23.10;1.00
1626;DHT22;806;48.770;9.156;2022-09-09T12:41:53;23.20;1.00
1626;DHT22;806;48.770;9.156;2022-09-09T12:44:23;23.20;1.00
1626;DHT22;806;48.770;9.156;2022-09-09T12:46:50;22.70;1.00
1626;DHT22;806;48.770;9.156;2022-09-09T12:49:31;22.50;1.00
1626;DHT22;806;48.770;9.156;2022-09-09T12:52:03;22.50;1.00
1626;DHT22;806;48.770;9.156;2022-09-09T12:54:34;22.60;1.00
1626;DHT22;806;48.770;9.156;2022-09-09T12:57:02;22.70;1.00
1626;DHT22;806;48.770;9.156;2022-09-09T12:59:36;22.40;1.00
1626;DHT22;806;48.770;9.156;2022-09-09T13:02:16;22.70;1.00
1626;DHT22;806;48.770;9.156;2022-09-09T13:04:44;23.40;1.00
1626;DHT22;806;48.770;9.156;2022-09-09T13:07:14;23.50;1.00
1626;DHT22;806;48.770;9.156;2022-09-09T13:09:42;23.30;1.00
1626;DHT22;806;48.770;9.156;2022-09-09T13:12:14;23.30;1.00
1626;DHT22;806;48.770;9.156;2022-09-09T13:14:44;23.20;1.00
1626;DHT22;806;48.770;9.156;2022-09-09T13:17:31;23.10;1.00
1626;DHT22;806;48.770;9.156;2022-09-09T13:19:58;23.30;1.00
1626;DHT22;806;48.770;9.156;2022-09-09T13:22:30;23.20;1.00
1626;DHT22;806;48.770;9.156;2022-09-09T13:25:00;23.30;1.00
1626;DHT22;806;48.770;9.156;2022-09-09T13:27:31;23.60;1.00
1626;DHT22;806;48.770;9.156;2022-09-09T13:29:59;23.60;1.00
1626;DHT22;806;48.770;9.156;2022-09-09T13:32:27;23.30;1.00
1626;DHT22;806;48.770;9.156;2022-09-09T13:34:55;23.20;1.00
1626;DHT22;806;48.770;9.156;2022-09-09T13:37:26;23.10;1.00
1626;DHT22;806;48.770;9.156;2022-09-09T13:39:57;22.90;1.00
1626;DHT22;806;48.770;9.156;2022-09-09T13:42:26;22.70;1.00
1626;DHT22;806;48.770;9.156;2022-09-09T13:44:54;22.90;1.00
1626;DHT22;806;48.770;9.156;2022-09-09T13:47:27;23.00;1.00
1626;DHT22;806;48.770;9.156;2022-09-09T13:49:55;23.20;1.00
1626;DHT22;806;48.770;9.156;2022-09-09T13:52:22;23.30;1.00
1626;DHT22;806;48.770;9.156;2022-09-09T13:54:52;23.50;1.00
1626;DHT22;806;48.770;9.156;2022-09-09T13:57:24;23.60;1.00
1626;DHT22;806;48.770;9.156;2022-09-09T13:59:52;23.60;1.00
1626;DHT22;806;48.770;9.156;2022-09-09T14:02:20;23.90;1.00
1626;DHT22;806;48.770;9.156;2022-09-09T14:04:48;23.70;1.00
1626;DHT22;806;48.770;9.156;2022-09-09T14:07:17;23.20;1.00
1626;DHT22;806;48.770;9.156;2022-09-09T14:09:44;23.10;1.00
1626;DHT22;806;48.770;9.156;2022-09-09T14:12:16;23.00;1.00
1626;DHT22;806;48.770;9.156;2022-09-09T14:14:47;23.10;1.00
1626;DHT22;806;48.770;9.156;2022-09-09T14:17:15;23.00;1.00
1626;DHT22;806;48.770;9.156;2022-09-09T14:19:43;23.20;1.00
1626;DHT22;806;48.770;9.156;2022-09-09T14:22:11;23.30;1.00
1626;DHT22;806;48.770;9.156;2022-09-09T14:24:38;23.40;1.00
1626;DHT22;806;48.770;9.156;2022-09-09T14:27:05;23.40;1.00
1626;DHT22;806;48.770;9.156;2022-09-09T14:29:32;23.20;1.00
1626;DHT22;806;48.770;9.156;2022-09-09T14:32:00;23.00;1.00
1626;DHT22;806;48.770;9.156;2022-09-09T14:34:27;23.00;1.00
1626;DHT22;806;48.770;9.156;2022-09-09T14:36:54;23.10;1.00
1626;DHT22;806;48.770;9.156;2022-09-09T14:39:21;23.20;1.00
1626;DHT22;806;48.770;9.156;2022-09-09T14:41:48;23.40;1.00
1626;DHT22;806;48.770;9.156;2022-09-09T14:44:15;23.50;1.00
1626;DHT22;806;48.770;9.156;2022-09-09T14:46:41;23.60;1.00
1626;DHT22;806;48.770;9.156;2022-09-09T14:49:10;23.60;1.00
1626;DHT22;806;48.770;9.156;2022-09-09T14:51:38;23.80;1.00
1626;DHT22;806;48.770;9.156;2022-09-09T14:54:05;23.70;1.00
1626;DHT22;806;48.770;9.156;2022-09-09T14:56:33;23.90;1.00
1626;DHT22;806;48.770;9.156;2022-09-09T14:59:01;23.90;1.00
1626;DHT22;806;48.770;9.156;2022-09-09T15:01:29;23.80;1.00
1626;DHT22;806;48.770;9.156;2022-09-09T15:03:58;23.90;1.00
1626;DHT22;806;48.770;9.156;2022-09-09T15:06:29;23.50;1.00
1626;DHT22;806;48.770;9.156;2022-09-09T15:08:57;23.40;1.00
1626;DHT22;806;48.770;9.156;2022-09-09T15:11:26;23.30;1.00
1626;DHT22;806;48.770;9.156;2022-09-09T15:13:53;23.30;1.00
1626;DHT22;806;48.770;9.156;2022-09-09T15:16:23;23.20;1.00
1626;DHT22;806;48.770;9.156;2022-09-09T15:18:52;23.10;1.00
1626;DHT22;806;48.770;9.156;2022-09-09T15:21:21;22.90;1.00
1626;DHT22;806;48.770;9.156;2022-09-09T15:23:50;22.90;1.00
1626;DHT22;806;48.770;9.156;2022-09-09T15:26:18;22.80;1.00
1626;DHT22;806;48.770;9.156;2022-09-09T15:28:46;22.80;1.00
1626;DHT22;806;48.770;9.156;2022-09-09T15:31:16;22.80;1.00
1626;DHT22;806;48.770;9.156;2022-09-09T15:33:47;22.70;1.00
1626;DHT22;806;48.770;9.156;2022-09-09T15:36:16;22.70;1.00
1626;DHT22;806;48.770;9.156;2022-09-09T15:38:43;22.80;1.00
1626;DHT22;806;48.770;9.156;2022-09-09T15:41:13;22.80;1.00
1626;DHT22;806;48.770;9.156;2022-09-09T15:43:43;22.90;1.00
1626;DHT22;806;48.770;9.156;2022-09-09T15:46:23;22.80;1.00
1626;DHT22;806;48.770;9.156;2022-09-09T15:48:54;22.60;1.00
1626;DHT22;806;48.770;9.156;2022-09-09T15:51:22;22.30;1.00
1626;DHT22;806;48.770;9.156;2022-09-09T15:53:51;22.20;1.00
1626;DHT22;806;48.770;9.156;2022-09-09T15:56:21;22.10;1.00
1626;DHT22;806;48.770;9.156;2022-09-09T15:58:49;22.00;1.00
1626;DHT22;806;48.770;9.156;2022-09-09T16:01:16;22.10;1.00
1626;DHT22;806;48.770;9.156;2022-09-09T16:03:46;22.10;1.00
1626;DHT22;806;48.770;9.156;2022-09-09T16:06:16;21.90;1.00
1626;DHT22;806;48.770;9.156;2022-09-09T16:08:45;21.90;1.00
1626;DHT22;806;48.770;9.156;2022-09-09T16:11:17;21.90;1.00
1626;DHT22;806;48.770;9.156;2022-09-09T16:13:47;21.80;1.00
1626;DHT22;806;48.770;9.156;2022-09-09T16:16:16;21.70;1.00
1626;DHT22;806;48.770;9.156;2022-09-09T16:18:46;21.60;1.00
1626;DHT22;806;48.770;9.156;2022-09-09T16:21:16;21.70;1.00
1626;DHT22;806;48.770;9.156;2022-09-09T16:23:44;21.70;1.00
1626;DHT22;806;48.770;9.156;2022-09-09T16:26:12;21.60;1.00
1626;DHT22;806;48.770;9.156;2022-09-09T16:28:40;21.70;1.00
1626;DHT22;806;48.770;9.156;2022-09-09T16:31:10;21.70;1.00
1626;DHT22;806;48.770;9.156;2022-09-09T16:33:37;21.70;1.00
1626;DHT22;806;48.770;9.156;2022-09-09T16:36:08;21.70;1.00
1626;DHT22;806;48.770;9.156;2022-09-09T16:38:36;21.70;1.00
1626;DHT22;806;48.770;9.156;2022-09-09T16:41:04;21.60;1.00
1626;DHT22;806;48.770;9.156;2022-09-09T16:43:31;21.50;1.00
1626;DHT22;806;48.770;9.156;2022-09-09T16:45:58;21.40;1.00
1626;DHT22;806;48.770;9.156;2022-09-09T16:48:30;21.30;1.00
1626;DHT22;806;48.770;9.156;2022-09-09T16:51:02;21.30;1.00
1626;DHT22;806;48.770;9.156;2022-09-09T16:53:29;21.00;1.00
1626;DHT22;806;48.770;9.156;2022-09-09T16:55:56;20.80;1.00
1626;DHT22;806;48.770;9.156;2022-09-09T16:58:23;20.80;1.00
1626;DHT22;806;48.770;9.156;2022-09-09T17:00:50;20.90;1.00
1626;DHT22;806;48.770;9.156;2022-09-09T17:03:17;20.70;1.00
1626;DHT22;806;48.770;9.156;2022-09-09T17:05:45;20.60;1.00